createdAt,value
2018-09-20T00:01:54.634Z,100386.34
2018-09-20T00:04:23.867Z,100388.42
2018-09-20T00:06:52.963Z,100380.84
2018-09-20T00:09:21.859Z,100379.63
2018-09-20T00:11:51.093Z,100378.50
2018-09-20T00:14:19.747Z,100384.00
2018-09-20T00:16:48.495Z,100382.91
2018-09-20T00:19:17.453Z,100382.50
2018-09-20T00:21:46.585Z,100385.27
2018-09-20T00:24:15.803Z,100384.16
2018-09-20T00:26:45.223Z,100383.87
2018-09-20T00:29:14.402Z,100389.87
2018-09-20T00:31:43.684Z,100386.52
2018-09-20T00:34:12.629Z,100387.00
2018-09-20T00:36:41.863Z,100385.37
2018-09-20T00:39:12.724Z,100388.93
2018-09-20T00:41:41.317Z,100391.55
2018-09-20T00:44:11.328Z,100385.64
2018-09-20T00:46:40.626Z,100387.63
2018-09-20T00:49:09.157Z,100390.92
2018-09-20T00:51:38.222Z,100388.15
2018-09-20T00:54:07.325Z,100388.73
2018-09-20T00:56:36.461Z,100398.49
2018-09-20T00:59:05.688Z,100396.97
2018-09-20T01:01:34.465Z,100399.10
2018-09-20T01:04:03.545Z,100398.38
2018-09-20T01:06:32.387Z,100402.53
2018-09-20T01:09:01.479Z,100395.63
2018-09-20T01:11:30.446Z,100403.61
2018-09-20T01:13:59.315Z,100398.05
2018-09-20T01:16:28.601Z,100403.80
2018-09-20T01:18:57.697Z,100404.16
2018-09-20T01:21:26.539Z,100405.38
2018-09-20T01:23:55.083Z,100407.72
2018-09-20T01:26:23.947Z,100408.44
2018-09-20T01:28:52.872Z,100406.50
2018-09-20T01:31:22.007Z,100409.57
2018-09-20T01:33:51.149Z,100413.86
2018-09-20T01:36:20.394Z,100413.63
2018-09-20T01:38:49.849Z,100415.48
2018-09-20T01:41:18.891Z,100416.89
2018-09-20T01:43:52.895Z,100419.81
2018-09-20T01:46:22.057Z,100414.59
2018-09-20T01:48:51.136Z,100421.03
2018-09-20T01:51:20.363Z,100422.39
2018-09-20T01:53:49.317Z,100425.00
2018-09-20T01:56:18.579Z,100423.92
2018-09-20T01:58:47.799Z,100428.12
2018-09-20T02:01:17.967Z,100423.83
2018-09-20T02:03:46.955Z,100427.67
2018-09-20T02:06:16.461Z,100424.19
2018-09-20T02:08:45.051Z,100430.73
2018-09-20T02:11:14.052Z,100425.09
2018-09-20T02:13:43.280Z,100429.06
2018-09-20T02:16:11.905Z,100429.52
2018-09-20T02:18:40.847Z,100424.36
2018-09-20T02:21:09.848Z,100429.47
2018-09-20T02:23:38.902Z,100428.11
2018-09-20T02:26:07.364Z,100427.11
2018-09-20T02:28:36.251Z,100423.86
2018-09-20T02:31:05.389Z,100421.88
2018-09-20T02:33:34.366Z,100427.19
2018-09-20T02:36:03.481Z,100427.31
2018-09-20T02:38:32.178Z,100428.58
2018-09-20T02:41:00.944Z,100424.13
2018-09-20T02:43:29.974Z,100433.73
2018-09-20T02:45:58.960Z,100434.95
2018-09-20T02:48:27.911Z,100433.25
2018-09-20T02:50:56.901Z,100435.95
2018-09-20T02:53:27.100Z,100442.01
2018-09-20T02:55:56.094Z,100441.66
2018-09-20T02:58:24.960Z,100443.81
2018-09-20T03:00:53.833Z,100442.05
2018-09-20T03:03:22.868Z,100453.59
2018-09-20T03:05:51.581Z,100452.98
2018-09-20T03:08:20.553Z,100462.14
2018-09-20T03:10:49.826Z,100469.80
2018-09-20T03:13:18.824Z,100472.61
2018-09-20T03:15:47.603Z,100465.73
2018-09-20T03:18:16.385Z,100469.20
2018-09-20T03:20:45.311Z,100467.85
2018-09-20T03:23:14.405Z,100457.48
2018-09-20T03:25:43.224Z,100455.58
2018-09-20T03:28:12.078Z,100459.77
2018-09-20T03:30:41.340Z,100453.94
2018-09-20T03:33:10.066Z,100454.41
2018-09-20T03:35:39.295Z,100457.89
2018-09-20T03:38:07.990Z,100456.78
2018-09-20T03:40:37.156Z,100452.85
2018-09-20T03:43:06.038Z,100454.56
2018-09-20T03:45:34.855Z,100457.81
2018-09-20T03:48:03.527Z,100454.80
2018-09-20T03:50:32.538Z,100451.10
2018-09-20T03:53:01.495Z,100450.87
2018-09-20T03:55:30.596Z,100448.17
2018-09-20T03:57:59.310Z,100444.12
2018-09-20T04:00:28.431Z,100443.44
2018-09-20T04:02:57.490Z,100447.93
2018-09-20T04:05:26.213Z,100443.80
2018-09-20T04:07:55.352Z,100449.65
2018-09-20T04:10:24.611Z,100450.58
2018-09-20T04:12:53.443Z,100442.89
2018-09-20T04:15:22.372Z,100451.58
2018-09-20T04:17:51.256Z,100444.83
2018-09-20T04:20:20.355Z,100448.77
2018-09-20T04:22:49.064Z,100446.87
2018-09-20T04:25:17.795Z,100450.70
2018-09-20T04:27:46.610Z,100445.30
2018-09-20T04:30:15.207Z,100437.86
2018-09-20T04:32:44.372Z,100435.50
2018-09-20T04:35:13.251Z,100436.43
2018-09-20T04:37:42.655Z,100435.40
2018-09-20T04:40:11.691Z,100439.25
2018-09-20T04:42:40.594Z,100440.37
2018-09-20T04:45:09.534Z,100452.77
2018-09-20T04:47:38.475Z,100453.42
2018-09-20T04:50:07.697Z,100458.06
2018-09-20T04:52:36.974Z,100454.00
2018-09-20T04:55:06.503Z,100453.00
2018-09-20T04:57:35.139Z,100460.19
2018-09-20T05:00:04.026Z,100473.46
2018-09-20T05:02:32.820Z,100477.52
2018-09-20T05:05:01.848Z,100480.14
2018-09-20T05:07:30.673Z,100475.74
2018-09-20T05:09:59.319Z,100475.87
2018-09-20T05:12:28.147Z,100478.61
2018-09-20T05:14:56.959Z,100481.31
2018-09-20T05:17:25.782Z,100480.54
2018-09-20T05:19:54.562Z,100479.61
2018-09-20T05:22:23.475Z,100475.68
2018-09-20T05:24:52.211Z,100477.26
2018-09-20T05:30:00.751Z,100471.77
2018-09-20T05:32:29.767Z,100473.55
2018-09-20T05:34:58.323Z,100476.48
2018-09-20T05:37:26.903Z,100478.84
2018-09-20T05:39:55.589Z,100479.19
2018-09-20T05:42:24.689Z,100480.08
2018-09-20T05:44:53.157Z,100480.53
2018-09-20T05:47:21.649Z,100481.42
2018-09-20T05:49:50.752Z,100478.72
2018-09-20T05:52:19.358Z,100486.25
2018-09-20T05:54:47.889Z,100490.95
2018-09-20T05:57:16.676Z,100498.28
2018-09-20T05:59:45.671Z,100486.67
2018-09-20T06:02:14.879Z,100490.18
2018-09-20T06:04:43.801Z,100480.27
2018-09-20T06:07:12.890Z,100484.20
2018-09-20T06:09:41.739Z,100487.13
2018-09-20T06:12:10.355Z,100482.27
2018-09-20T06:14:38.982Z,100483.50
2018-09-20T06:17:07.551Z,100487.09
2018-09-20T06:19:36.392Z,100489.78
2018-09-20T06:22:05.593Z,100499.58
2018-09-20T06:24:34.606Z,100493.83
2018-09-20T06:27:03.371Z,100499.58
2018-09-20T06:29:32.085Z,100503.74
2018-09-20T06:32:00.721Z,100504.97
2018-09-20T06:34:29.344Z,100503.70
2018-09-20T06:36:59.555Z,100502.70
2018-09-20T06:39:28.163Z,100504.73
2018-09-20T06:41:56.727Z,100498.05
2018-09-20T06:44:25.551Z,100496.14
2018-09-20T06:46:54.396Z,100495.14
2018-09-20T06:49:23.038Z,100500.77
2018-09-20T06:51:51.692Z,100502.46
2018-09-20T06:54:20.414Z,100510.57
2018-09-20T06:56:49.160Z,100503.94
2018-09-20T06:59:17.673Z,100506.16
2018-09-20T07:01:46.365Z,100512.69
2018-09-20T07:04:14.885Z,100515.94
2018-09-20T07:06:43.738Z,100512.69
2018-09-20T07:09:14.343Z,100508.05
2018-09-20T07:11:43.098Z,100513.33
2018-09-20T07:14:11.891Z,100510.03
2018-09-20T07:16:40.673Z,100502.13
2018-09-20T07:19:09.448Z,100498.28
2018-09-20T07:21:38.182Z,100500.94
2018-09-20T07:24:07.158Z,100503.38
2018-09-20T07:26:36.263Z,100506.64
2018-09-20T07:29:04.846Z,100501.85
2018-09-20T07:31:33.891Z,100502.34
2018-09-20T07:34:02.613Z,100501.41
2018-09-20T07:36:31.248Z,100501.59
2018-09-20T07:38:59.774Z,100503.23
2018-09-20T07:41:28.837Z,100504.14
2018-09-20T07:43:57.920Z,100506.78
2018-09-20T07:46:26.751Z,100506.64
2018-09-20T07:48:56.156Z,100506.88
2018-09-20T07:51:25.256Z,100507.87
2018-09-20T07:53:54.185Z,100503.67
2018-09-20T07:56:23.998Z,100504.48
2018-09-20T07:58:53.128Z,100502.63
2018-09-20T08:01:22.110Z,100503.50
2018-09-20T08:03:51.032Z,100504.81
2018-09-20T08:06:20.949Z,100496.06
2018-09-20T08:08:49.958Z,100502.07
2018-09-20T08:11:18.754Z,100499.09
2018-09-20T08:13:47.747Z,100499.65
2018-09-20T08:16:16.537Z,100496.99
2018-09-20T08:18:45.226Z,100493.66
2018-09-20T08:21:15.030Z,100490.20
2018-09-20T08:23:43.668Z,100477.16
2018-09-20T08:26:12.543Z,100484.22
2018-09-20T08:28:41.186Z,100484.78
2018-09-20T08:31:10.135Z,100484.77
2018-09-20T08:33:39.467Z,100482.82
2018-09-20T08:36:08.638Z,100483.92
2018-09-20T08:38:37.600Z,100477.70
2018-09-20T08:41:06.872Z,100480.47
2018-09-20T08:43:35.856Z,100473.87
2018-09-20T08:46:05.083Z,100483.14
2018-09-20T08:48:33.900Z,100475.44
2018-09-20T08:51:02.652Z,100481.06
2018-09-20T08:53:31.438Z,100476.66
2018-09-20T08:56:00.301Z,100473.10
2018-09-20T08:58:32.129Z,100466.09
2018-09-20T09:01:02.039Z,100469.22
2018-09-20T09:03:31.395Z,100465.58
2018-09-20T09:06:01.294Z,100462.87
2018-09-20T09:08:30.208Z,100466.95
2018-09-20T09:10:59.285Z,100457.32
2018-09-20T09:13:27.979Z,100458.44
2018-09-20T09:15:56.618Z,100455.62
2018-09-20T09:18:25.362Z,100452.30
2018-09-20T09:20:54.213Z,100453.86
2018-09-20T09:23:23.640Z,100449.14
2018-09-20T09:25:52.621Z,100445.58
2018-09-20T09:28:21.484Z,100449.91
2018-09-20T09:30:50.738Z,100438.29
2018-09-20T09:33:19.519Z,100438.67
2018-09-20T09:35:48.220Z,100433.34
2018-09-20T09:38:17.248Z,100437.84
2018-09-20T09:40:46.329Z,100435.28
2018-09-20T09:43:15.565Z,100428.23
2018-09-20T09:45:44.154Z,100425.36
2018-09-20T09:48:13.112Z,100423.18
2018-09-20T09:50:42.137Z,100423.73
2018-09-20T09:53:11.242Z,100422.76
2018-09-20T09:55:40.587Z,100415.59
2018-09-20T09:58:09.551Z,100416.99
2018-09-20T10:00:40.205Z,100412.05
2018-09-20T10:03:09.124Z,100403.73
2018-09-20T10:05:38.089Z,100398.22
2018-09-20T10:08:06.872Z,100394.99
2018-09-20T10:10:35.940Z,100388.56
2018-09-20T10:13:04.707Z,100380.80
2018-09-20T10:15:35.388Z,100386.76
2018-09-20T10:20:45.378Z,100381.56
2018-09-20T10:23:14.342Z,100379.37
2018-09-20T10:25:43.011Z,100374.31
2018-09-20T10:28:11.931Z,100370.66
2018-09-20T10:30:40.593Z,100367.29
2018-09-20T10:33:09.390Z,100365.84
2018-09-20T10:35:38.784Z,100361.75
2018-09-20T10:38:07.872Z,100360.70
2018-09-20T10:40:36.999Z,100358.38
2018-09-20T10:43:05.971Z,100347.32
2018-09-20T10:45:34.889Z,100344.70
2018-09-20T10:48:03.820Z,100344.03
2018-09-20T10:50:32.645Z,100338.24
2018-09-20T10:53:04.118Z,100335.19
2018-09-20T10:55:32.859Z,100325.06
2018-09-20T10:58:01.572Z,100321.92
2018-09-20T11:00:30.256Z,100319.22
2018-09-20T11:02:59.482Z,100319.41
2018-09-20T11:05:28.968Z,100307.32
2018-09-20T11:07:57.735Z,100311.81
2018-09-20T11:10:26.445Z,100310.24
2018-09-20T11:12:54.972Z,100308.67
2018-09-20T11:15:23.860Z,100309.27
2018-09-20T11:17:52.966Z,100303.22
2018-09-20T11:20:21.494Z,100304.95
2018-09-20T11:22:49.965Z,100300.66
2018-09-20T11:25:19.019Z,100294.64
2018-09-20T11:27:47.668Z,100295.20
2018-09-20T11:30:16.904Z,100288.34
2018-09-20T11:32:46.029Z,100282.50
2018-09-20T11:35:14.799Z,100279.73
2018-09-20T11:37:44.118Z,100283.10
2018-09-20T11:40:13.037Z,100271.01
2018-09-20T11:42:41.874Z,100279.52
2018-09-20T11:45:12.600Z,100266.72
2018-09-20T11:47:44.770Z,100268.78
2018-09-20T11:50:14.420Z,100257.74
2018-09-20T11:52:43.468Z,100253.46
2018-09-20T11:55:12.763Z,100255.72
2018-09-20T11:57:43.093Z,100244.72
2018-09-20T12:03:02.929Z,100251.14
2018-09-20T12:05:32.793Z,100241.42
2018-09-20T12:08:02.224Z,100244.03
2018-09-20T12:10:33.046Z,100242.47
2018-09-20T12:13:03.472Z,100237.91
2018-09-20T12:15:33.379Z,100234.37
2018-09-20T12:18:02.561Z,100233.98
2018-09-20T12:20:31.677Z,100237.11
2018-09-20T12:23:00.624Z,100222.70
2018-09-20T12:25:29.932Z,100214.47
2018-09-20T12:27:58.622Z,100217.42
2018-09-20T12:30:28.071Z,100201.92
2018-09-20T12:32:57.415Z,100207.02
2018-09-20T12:35:26.420Z,100209.90
2018-09-20T12:37:55.508Z,100196.89
2018-09-20T12:40:25.702Z,100193.51
2018-09-20T12:42:54.891Z,100192.51
2018-09-20T12:45:26.522Z,100186.14
2018-09-20T12:47:55.752Z,100182.86
2018-09-20T12:50:24.610Z,100175.34
2018-09-20T12:52:53.525Z,100170.05
2018-09-20T12:55:22.239Z,100163.33
2018-09-20T12:57:51.248Z,100166.89
2018-09-20T13:00:20.191Z,100168.91
2018-09-20T13:02:50.732Z,100165.31
2018-09-20T13:05:19.821Z,100162.36
2018-09-20T13:07:49.228Z,100160.14
2018-09-20T13:10:18.216Z,100148.53
2018-09-20T13:12:47.099Z,100152.79
2018-09-20T13:15:15.896Z,100148.66
2018-09-20T13:17:44.637Z,100151.41
2018-09-20T13:20:14.233Z,100149.30
2018-09-20T13:22:43.786Z,100144.47
2018-09-20T13:25:12.782Z,100148.84
2018-09-20T13:27:41.824Z,100132.50
2018-09-20T13:30:10.800Z,100135.37
2018-09-20T13:32:41.741Z,100124.45
2018-09-20T13:35:10.801Z,100138.33
2018-09-20T13:37:40.145Z,100128.99
2018-09-20T13:40:09.008Z,100130.23
2018-09-20T13:42:43.206Z,100128.70
2018-09-20T13:45:12.306Z,100127.41
2018-09-20T13:47:40.984Z,100123.61
2018-09-20T13:50:09.612Z,100124.95
2018-09-20T13:52:38.566Z,100115.87
2018-09-20T13:55:07.157Z,100117.48
2018-09-20T13:57:37.397Z,100121.16
2018-09-20T14:00:06.961Z,100117.94
2018-09-20T14:02:35.893Z,100117.95
2018-09-20T14:05:04.987Z,100116.38
2018-09-20T14:07:33.909Z,100107.45
2018-09-20T14:10:02.894Z,100103.84
2018-09-20T14:12:33.429Z,100105.88
2018-09-20T14:15:03.003Z,100103.69
2018-09-20T14:20:12.407Z,100095.20
2018-09-20T14:23:00.462Z,100090.35
2018-09-20T14:25:29.917Z,100097.03
2018-09-20T14:27:59.203Z,100097.70
2018-09-20T14:30:27.707Z,100099.67
2018-09-20T14:33:01.942Z,100095.61
2018-09-20T14:35:30.491Z,100093.31
2018-09-20T14:37:59.547Z,100089.06
2018-09-20T14:40:28.565Z,100083.61
2018-09-20T14:42:57.792Z,100095.52
2018-09-20T14:45:26.881Z,100090.95
2018-09-20T14:47:55.937Z,100092.61
2018-09-20T14:50:24.716Z,100089.64
2018-09-20T14:52:58.533Z,100089.53
2018-09-20T14:55:27.547Z,100083.78
2018-09-20T14:57:56.432Z,100083.44
2018-09-20T15:00:26.119Z,100079.18
2018-09-20T15:02:55.444Z,100080.43
2018-09-20T15:05:24.553Z,100089.26
2018-09-20T15:07:53.718Z,100078.60
2018-09-20T15:10:22.960Z,100076.12
2018-09-20T15:12:51.623Z,100080.45
2018-09-20T15:15:20.608Z,100079.19
2018-09-20T15:17:50.277Z,100076.48
2018-09-20T15:20:19.072Z,100073.33
2018-09-20T15:22:52.812Z,100072.73
2018-09-20T15:25:21.649Z,100071.99
2018-09-20T15:27:50.750Z,100074.31
2018-09-20T15:30:20.150Z,100073.17
2018-09-20T15:32:49.400Z,100083.30
2018-09-20T15:35:18.584Z,100073.45
2018-09-20T15:37:47.589Z,100073.67
2018-09-20T15:40:19.216Z,100084.05
2018-09-20T15:42:47.867Z,100077.09
2018-09-20T15:45:16.478Z,100076.03
2018-09-20T15:47:45.329Z,100078.73
2018-09-20T15:50:14.281Z,100071.05
2018-09-20T15:52:43.056Z,100072.99
2018-09-20T15:55:12.107Z,100068.72
2018-09-20T15:57:40.761Z,100074.20
2018-09-20T16:00:09.437Z,100068.09
2018-09-20T16:02:38.347Z,100065.36
2018-09-20T16:05:07.258Z,100065.16
2018-09-20T16:07:36.212Z,100059.31
2018-09-20T16:10:04.930Z,100058.57
2018-09-20T16:12:33.684Z,100057.02
2018-09-20T16:15:03.031Z,100065.06
2018-09-20T16:17:31.714Z,100058.24
2018-09-20T16:20:00.302Z,100058.27
2018-09-20T16:22:29.108Z,100059.86
2018-09-20T16:24:58.164Z,100056.16
2018-09-20T16:27:27.031Z,100052.50
2018-09-20T16:30:25.399Z,100047.66
2018-09-20T16:35:26.632Z,100042.81
2018-09-20T16:38:10.158Z,100043.46
2018-09-20T16:40:41.564Z,100034.70
2018-09-20T16:43:11.233Z,100043.88
2018-09-20T16:48:20.201Z,100039.37
2018-09-20T16:50:48.921Z,100044.47
2018-09-20T16:53:17.914Z,100041.75
2018-09-20T16:55:46.712Z,100036.77
2018-09-20T16:58:15.588Z,100044.25
2018-09-20T17:00:44.508Z,100033.72
2018-09-20T17:03:13.102Z,100037.28
2018-09-20T17:05:41.924Z,100041.03
2018-09-20T17:08:10.630Z,100034.62
2018-09-20T17:10:39.909Z,100036.41
2018-09-20T17:13:09.214Z,100036.05
2018-09-20T17:15:39.249Z,100043.09
2018-09-20T17:18:07.870Z,100044.82
2018-09-20T17:20:37.126Z,100038.05
2018-09-20T17:23:05.808Z,100042.15
2018-09-20T17:25:35.196Z,100042.75
2018-09-20T17:28:04.190Z,100043.94
2018-09-20T17:30:33.135Z,100040.05
2018-09-20T17:33:02.295Z,100046.67
2018-09-20T17:35:31.609Z,100041.05
2018-09-20T17:38:01.733Z,100039.48
2018-09-20T17:40:31.456Z,100037.36
2018-09-20T17:43:02.868Z,100042.62
2018-09-20T17:45:31.884Z,100037.96
2018-09-20T17:48:01.088Z,100038.92
2018-09-20T17:50:30.277Z,100044.58
2018-09-20T17:52:59.848Z,100040.32
2018-09-20T17:55:29.360Z,100035.66
2018-09-20T17:57:58.250Z,100035.66
2018-09-20T18:00:27.308Z,100034.09
2018-09-20T18:02:56.165Z,100033.30
2018-09-20T18:05:25.375Z,100043.63
2018-09-20T18:07:54.592Z,100041.86
2018-09-20T18:10:23.616Z,100042.85
2018-09-20T18:12:52.346Z,100041.69
2018-09-20T18:15:20.895Z,100037.98
2018-09-20T18:17:49.992Z,100043.05
2018-09-20T18:20:19.020Z,100042.84
2018-09-20T18:22:47.802Z,100042.27
2018-09-20T18:25:16.775Z,100047.73
2018-09-20T18:27:45.494Z,100042.66
2018-09-20T18:30:14.498Z,100038.17
2018-09-20T18:32:43.697Z,100046.36
2018-09-20T18:35:13.055Z,100043.43
2018-09-20T18:37:42.298Z,100040.13
2018-09-20T18:40:10.857Z,100040.89
2018-09-20T18:42:39.905Z,100042.27
2018-09-20T18:45:08.474Z,100042.06
2018-09-20T18:47:37.626Z,100039.73
2018-09-20T18:50:06.448Z,100037.95
2018-09-20T18:52:35.149Z,100044.76
2018-09-20T18:55:03.942Z,100037.14
2018-09-20T18:57:32.595Z,100039.29
2018-09-20T19:00:01.510Z,100041.41
2018-09-20T19:02:30.403Z,100036.33
2018-09-20T19:04:59.067Z,100037.31
2018-09-20T19:07:27.994Z,100035.93
2018-09-20T19:09:56.666Z,100029.33
2018-09-20T19:15:09.227Z,100032.61
2018-09-20T19:17:38.606Z,100027.53
2018-09-20T19:20:09.079Z,100025.79
2018-09-20T19:25:19.373Z,100033.16
2018-09-20T19:27:48.529Z,100036.08
2018-09-20T19:30:17.228Z,100025.56
2018-09-20T19:32:45.958Z,100028.84
2018-09-20T19:35:14.782Z,100024.95
2018-09-20T19:37:43.716Z,100027.03
2018-09-20T19:40:13.009Z,100028.93
2018-09-20T19:42:41.989Z,100029.12
2018-09-20T19:45:10.728Z,100024.61
2018-09-20T19:47:39.888Z,100018.41
2018-09-20T19:50:08.765Z,100025.20
2018-09-20T19:52:37.733Z,100017.61
2018-09-20T19:55:06.869Z,100012.15
2018-09-20T19:57:35.420Z,100011.53
2018-09-20T20:00:04.491Z,100012.30
2018-09-20T20:02:33.608Z,100012.28
2018-09-20T20:05:02.617Z,100009.74
2018-09-20T20:07:31.696Z,100007.20
2018-09-20T20:10:00.463Z,100001.18
2018-09-20T20:12:29.219Z,100002.70
2018-09-20T20:14:58.134Z,100007.13
2018-09-20T20:17:27.126Z,100009.23
2018-09-20T20:19:56.485Z,100004.74
2018-09-20T20:22:25.350Z,100003.56
2018-09-20T20:24:54.217Z,100007.23
2018-09-20T20:27:23.209Z,100001.58
2018-09-20T20:29:51.678Z,100001.38
2018-09-20T20:32:20.534Z,100002.94
2018-09-20T20:34:49.659Z,99994.05
2018-09-20T20:37:18.837Z,99989.80
2018-09-20T20:39:48.483Z,99989.80
2018-09-20T20:42:17.355Z,100001.47
2018-09-20T20:44:46.041Z,100002.05
2018-09-20T20:47:14.864Z,99997.59
2018-09-20T20:49:43.673Z,99997.56
2018-09-20T20:52:12.221Z,100004.36
2018-09-20T20:54:40.933Z,100004.36
2018-09-20T20:57:09.918Z,99994.79
2018-09-20T20:59:38.439Z,99993.81
2018-09-20T21:02:07.338Z,99992.05
2018-09-20T21:04:35.926Z,99998.01
2018-09-20T21:07:04.670Z,99984.98
2018-09-20T21:09:33.752Z,99981.88
2018-09-20T21:12:02.920Z,99987.67
2018-09-20T21:14:31.875Z,99981.05
2018-09-20T21:17:01.118Z,99973.64
2018-09-20T21:19:29.875Z,99978.09
2018-09-20T21:21:59.338Z,99979.45
2018-09-20T21:24:28.171Z,99983.53
2018-09-20T21:26:57.373Z,99982.14
2018-09-20T21:29:26.604Z,99983.88
2018-09-20T21:31:55.610Z,99976.88
2018-09-20T21:34:24.475Z,99976.32
2018-09-20T21:36:53.490Z,99977.68
2018-09-20T21:39:23.074Z,99972.42
2018-09-20T21:41:51.967Z,99973.16
2018-09-20T21:44:20.997Z,99967.13
2018-09-20T21:46:49.784Z,99964.77
2018-09-20T21:49:18.522Z,99968.03
2018-09-20T21:51:47.776Z,99961.18
2018-09-20T21:54:16.562Z,99960.80
2018-09-20T21:56:45.448Z,99958.39
2018-09-20T21:59:14.108Z,99958.19
2018-09-20T22:01:48.080Z,99956.96
2018-09-20T22:04:16.649Z,99951.70
2018-09-20T22:06:45.355Z,99947.59
2018-09-20T22:09:14.308Z,99942.67
2018-09-20T22:11:43.275Z,99945.56
2018-09-20T22:14:12.191Z,99944.38
2018-09-20T22:16:41.071Z,99939.88
2018-09-20T22:19:10.131Z,99942.18
2018-09-20T22:21:39.522Z,99943.70
2018-09-20T22:24:08.589Z,99940.02
2018-09-20T22:26:37.663Z,99936.45
2018-09-20T22:29:06.415Z,99933.09
2018-09-20T22:31:35.320Z,99926.83
2018-09-20T22:34:04.286Z,99919.06
2018-09-20T22:36:32.939Z,99918.64
2018-09-20T22:39:01.475Z,99919.44
2018-09-20T22:41:30.205Z,99911.84
2018-09-20T22:43:59.041Z,99915.05
2018-09-20T22:46:27.756Z,99906.31
2018-09-20T22:48:56.397Z,99907.45
2018-09-20T22:51:25.338Z,99903.18
2018-09-20T22:53:53.847Z,99900.28
2018-09-20T22:56:22.589Z,99896.73
2018-09-20T22:58:51.619Z,99894.19
2018-09-20T23:01:20.585Z,99896.51
2018-09-20T23:03:49.158Z,99896.25
2018-09-20T23:06:17.779Z,99896.58
2018-09-20T23:08:46.658Z,99890.77
2018-09-20T23:11:15.333Z,99884.38
2018-09-20T23:13:44.250Z,99878.53
2018-09-20T23:16:13.191Z,99882.38
2018-09-20T23:18:42.134Z,99888.39
2018-09-20T23:21:10.881Z,99886.72
2018-09-20T23:23:39.828Z,99882.77
2018-09-20T23:26:09.901Z,99875.03
2018-09-20T23:28:39.339Z,99880.45
2018-09-20T23:31:07.958Z,99872.30
2018-09-20T23:33:36.577Z,99873.49
2018-09-20T23:36:05.319Z,99870.95
2018-09-20T23:38:34.321Z,99869.42
2018-09-20T23:41:03.293Z,99868.58
2018-09-20T23:43:32.015Z,99874.14
2018-09-20T23:46:00.601Z,99867.22
2018-09-20T23:48:29.795Z,99868.85
2018-09-20T23:50:58.475Z,99860.99
2018-09-20T23:53:27.561Z,99858.18
2018-09-20T23:55:56.287Z,99856.98
2018-09-20T23:58:24.728Z,99854.02
